createdAt,value
2022-11-19T00:01:50.999Z,97273.91
2022-11-19T00:21:53.536Z,97294.38
2022-11-19T00:41:56.189Z,97303.84
2022-11-19T01:01:58.889Z,97321.59
2022-11-19T01:22:01.610Z,97314.41
2022-11-19T01:42:04.079Z,97337.91
2022-11-19T02:02:06.812Z,97345.28
2022-11-19T02:22:09.350Z,97351.72
2022-11-19T02:42:11.806Z,97374.38
2022-11-19T03:02:33.477Z,97384.94
2022-11-19T03:22:35.980Z,97405.66
2022-11-19T03:42:38.735Z,97415.44
2022-11-19T04:02:41.434Z,97443.88
2022-11-19T04:22:43.947Z,97454.22
2022-11-19T04:42:46.352Z,97472.13
2022-11-19T05:02:49.002Z,97495.59
2022-11-19T05:22:51.800Z,97511.28
2022-11-19T05:42:54.205Z,97517.16
2022-11-19T06:02:56.906Z,97562.19
2022-11-19T06:22:59.412Z,97587.28
2022-11-19T06:43:01.803Z,97616.25
2022-11-19T07:03:04.352Z,97646.66
2022-11-19T07:23:06.784Z,97666.91
2022-11-19T07:43:09.212Z,97680.72
2022-11-19T08:03:12.449Z,97696.41
2022-11-19T08:23:15.085Z,97688.94
2022-11-19T08:43:17.472Z,97708.00
2022-11-19T09:03:20.472Z,97704.75
2022-11-19T09:23:23.183Z,97713.78
2022-11-19T09:43:25.661Z,97729.34
2022-11-19T10:03:33.257Z,97739.31
2022-11-19T10:23:36.320Z,97730.47
2022-11-19T10:43:38.710Z,97734.84
2022-11-19T11:03:41.419Z,97734.09
2022-11-19T11:23:44.121Z,97724.22
2022-11-19T11:44:02.435Z,97724.56
2022-11-19T12:04:05.136Z,97729.34
2022-11-19T12:24:07.832Z,97728.03
2022-11-19T12:44:10.599Z,97737.09
2022-11-19T13:04:13.059Z,97750.25
2022-11-19T13:24:15.700Z,97756.28
2022-11-19T13:44:36.873Z,97764.84
2022-11-19T14:04:39.495Z,97770.22
2022-11-19T14:25:00.839Z,97771.28
2022-11-19T14:45:04.136Z,97778.31
2022-11-19T15:05:06.882Z,97778.88
2022-11-19T15:25:13.972Z,97791.22
2022-11-19T15:45:17.542Z,97804.09
2022-11-19T16:05:20.426Z,97814.13
2022-11-19T16:25:23.266Z,97824.13
2022-11-19T16:45:25.670Z,97818.63
2022-11-19T17:05:29.867Z,97816.06
2022-11-19T17:25:32.438Z,97807.34
2022-11-19T17:45:34.846Z,97792.97
2022-11-19T18:05:37.521Z,97796.06
2022-11-19T18:25:40.234Z,97804.13
2022-11-19T18:45:42.669Z,97813.47
2022-11-19T19:05:45.254Z,97813.72
2022-11-19T19:25:48.090Z,97812.16
2022-11-19T19:45:50.596Z,97791.56
2022-11-19T20:05:53.440Z,97813.87
2022-11-19T20:25:55.996Z,97809.44
2022-11-19T20:45:58.384Z,97805.69
2022-11-19T21:06:01.120Z,97805.97
2022-11-19T21:26:03.805Z,97805.19
2022-11-19T21:46:06.206Z,97798.28
2022-11-19T22:06:08.976Z,97791.75
2022-11-19T22:26:11.456Z,97789.31
2022-11-19T22:46:13.893Z,97805.28
2022-11-19T23:06:16.556Z,97791.69
2022-11-19T23:26:19.253Z,97786.88
2022-11-19T23:46:21.911Z,97791.16
